| time (UTC) | temp F | wind direction | speed MPH | gust MPH | rain 1hr in | rain 24hr in | rain mn in | humidity % | barometer mb |
| 20260507114533 | 26 | 280 | 1.0 | 3.0 | 0.00 | 0.00 | 0.00 | 72 | 1008.2 |
| 20260507113035 | 25 | 280 | 0.0 | 1.0 | 0.00 | 0.00 | 0.00 | 71 | 1007.9 |
| 20260507111531 | 27 | 280 | 0.0 | 2.0 | 0.00 | 0.00 | 0.00 | 67 | 1008.0 |
| 20260507110030 | 26 | 280 | 2.0 | 4.0 | 0.00 | 0.00 | 0.00 | 68 | 1008.0 |
| 20260507104526 | 28 | 280 | 2.0 | 4.0 | 0.00 | 0.00 | 0.00 | 63 | 1007.8 |
| 20260507103025 | 28 | 280 | 0.0 | 2.0 | 0.00 | 0.00 | 0.00 | 64 | 1007.7 |
| 20260507101530 | 29 | 280 | 0.0 | 1.0 | 0.00 | 0.00 | 0.00 | 62 | 1007.6 |
| 20260507100026 | 31 | 280 | 3.0 | 4.0 | 0.00 | 0.00 | 0.00 | 59 | 1007.5 |
| 20260507094521 | 31 | 280 | 0.0 | 0.0 | 0.00 | 0.00 | 0.00 | 60 | 1007.7 |
| 20260507093033 | 33 | 280 | 0.0 | 0.0 | 0.00 | 0.00 | 0.00 | 57 | 1007.7 |
| 20260507091516 | 31 | 280 | 0.0 | 0.0 | 0.00 | 0.00 | 0.00 | 61 | 1007.5 |
| 20260507090028 | 31 | 280 | 0.0 | 0.0 | 0.00 | 0.00 | 0.00 | 61 | 1007.6 |
| 20260507084515 | 31 | 280 | 0.0 | 0.0 | 0.00 | 0.00 | 0.00 | 61 | 1007.7 |
| 20260507083031 | 32 | 280 | 0.0 | 0.0 | 0.00 | 0.00 | 0.00 | 59 | 1007.7 |
| 20260507081513 | 30 | 280 | 0.0 | 0.0 | 0.00 | 0.00 | 0.00 | 63 | 1007.8 |
| 20260507080009 | 31 | 280 | 1.0 | 2.0 | 0.00 | 0.00 | 0.00 | 62 | 1007.9 |
| 20260507074515 | 33 | 280 | 2.0 | 3.0 | 0.00 | 0.00 | 0.00 | 60 | 1007.9 |
| 20260507073005 | 34 | 280 | 0.0 | 0.0 | 0.00 | 0.00 | 0.00 | 57 | 1008.1 |
| 20260507071504 | 34 | 280 | 0.0 | 2.0 | 0.00 | 0.00 | 0.00 | 58 | 1008.1 |
| 20260507064558 | 34 | 280 | 2.0 | 3.0 | 0.00 | 0.00 | 0.00 | 57 | 1008.5 |
| 20260507063058 | 35 | 280 | 0.0 | 2.0 | 0.00 | 0.00 | 0.00 | 54 | 1008.4 |
| 20260507061551 | 35 | 280 | 0.0 | 0.0 | 0.00 | 0.00 | 0.00 | 56 | 1008.6 |
| 20260507060049 | 35 | 280 | 1.0 | 1.0 | 0.00 | 0.00 | 0.00 | 56 | 1008.6 |
| 20260507054555 | 36 | 280 | 0.0 | 2.0 | 0.00 | 0.00 | 0.00 | 52 | 1008.5 |
| 20260507053049 | 39 | 280 | 5.0 | 6.0 | 0.00 | 0.00 | 0.00 | 47 | 1008.5 |
| 20260507051547 | 39 | 280 | 5.0 | 6.0 | 0.00 | 0.00 | 0.00 | 48 | 1008.3 |
| 20260507050047 | 40 | 280 | 3.0 | 4.0 | 0.00 | 0.00 | 0.00 | 46 | 1008.4 |
| 20260507044543 | 41 | 280 | 3.0 | 3.0 | 0.00 | 0.00 | 0.00 | 43 | 1008.7 |
| 20260507043043 | 40 | 280 | 4.0 | 6.0 | 0.00 | 0.00 | 0.00 | 48 | 1008.9 |
| 20260507041542 | 39 | 280 | 4.0 | 5.0 | 0.00 | 0.00 | 0.00 | 50 | 1008.9 |
| 20260507040053 | 42 | 280 | 0.0 | 2.0 | 0.00 | 0.00 | 0.00 | 44 | 1009.0 |
| 20260507034547 | 39 | 280 | 0.0 | 0.0 | 0.00 | 0.00 | 0.00 | 49 | 1009.3 |
| 20260507033043 | 41 | 280 | 0.0 | 4.0 | 0.00 | 0.00 | 0.00 | 47 | 1009.4 |
| 20260507031539 | 43 | 280 | 1.0 | 2.0 | 0.00 | 0.00 | 0.00 | 38 | 1009.3 |
| 20260507030039 | 44 | 280 | 0.0 | 3.0 | 0.00 | 0.00 | 0.00 | 37 | 1009.4 |
| 20260507024538 | 44 | 280 | 1.0 | 1.0 | 0.00 | 0.00 | 0.00 | 37 | 1009.3 |
| 20260507023037 | 44 | 280 | 0.0 | 0.0 | 0.00 | 0.00 | 0.00 | 38 | 1009.3 |
| 20260507021536 | 47 | 280 | 0.0 | 1.0 | 0.00 | 0.00 | 0.00 | 32 | 1009.4 |
| 20260507020036 | 49 | 280 | 2.0 | 3.0 | 0.00 | 0.00 | 0.00 | 30 | 1009.4 |
| 20260507014535 | 49 | 280 | 2.0 | 3.0 | 0.00 | 0.00 | 0.00 | 30 | 1009.5 |
| 20260507013038 | 49 | 280 | 2.0 | 3.0 | 0.00 | 0.00 | 0.00 | 32 | 1009.6 |
| 20260507011539 | 51 | 280 | 1.0 | 5.0 | 0.00 | 0.00 | 0.00 | 31 | 1009.7 |
| 20260507010032 | 52 | 280 | 3.0 | 7.0 | 0.00 | 0.00 | 0.00 | 27 | 1009.8 |
| 20260507004531 | 54 | 280 | 5.0 | 10.0 | 0.00 | 0.00 | 0.00 | 24 | 1009.8 |
| 20260507003129 | 54 | 280 | 7.0 | 10.0 | 0.00 | 0.00 | 0.00 | 22 | 1010.0 |
| 20260507001530 | 55 | 280 | 10.0 | 15.0 | 0.00 | 0.00 | 0.00 | 22 | 1010.1 |
| 20260507000026 | 54 | 280 | 7.0 | 11.0 | 0.00 | 0.00 | 0.00 | 23 | 1010.3 |
| 20260506234530 | 54 | 280 | 8.0 | 13.0 | 0.00 | 0.00 | 0.00 | 22 | 1010.7 |
| 20260506233021 | 54 | 280 | 11.0 | 15.0 | 0.00 | 0.00 | 0.00 | 21 | 1010.9 |
| 20260506231521 | 54 | 280 | 7.0 | 14.0 | 0.00 | 0.00 | 0.00 | 22 | 1010.9 |
| 20260506230020 | 55 | 280 | 12.0 | 17.0 | 0.00 | 0.00 | 0.00 | 21 | 1011.2 |
| 20260506224526 | 54 | 280 | 11.0 | 17.0 | 0.00 | 0.00 | 0.00 | 19 | 1011.3 |
| 20260506223017 | 55 | 280 | 12.0 | 17.0 | 0.00 | 0.00 | 0.00 | 21 | 1011.5 |
| 20260506221516 | 55 | 280 | 10.0 | 15.0 | 0.00 | 0.00 | 0.00 | 22 | 1011.7 |
| 20260506220015 | 53 | 280 | 5.0 | 13.0 | 0.00 | 0.00 | 0.00 | 23 | 1011.9 |
| 20260506214511 | 54 | 280 | 13.0 | 17.0 | 0.00 | 0.00 | 0.00 | 21 | 1012.3 |
| 20260506213018 | 54 | 280 | 10.0 | 17.0 | 0.00 | 0.00 | 0.00 | 22 | 1012.5 |
| 20260506211509 | 53 | 280 | 12.0 | 21.0 | 0.00 | 0.00 | 0.00 | 22 | 1012.7 |
| 20260506210007 | 53 | 280 | 8.0 | 18.0 | 0.00 | 0.00 | 0.00 | 23 | 1013.0 |
| 20260506204506 | 53 | 280 | 7.0 | 21.0 | 0.00 | 0.00 | 0.00 | 25 | 1013.2 |
| 20260506203004 | 52 | 280 | 10.0 | 20.0 | 0.00 | 0.00 | 0.00 | 22 | 1013.5 |
| 20260506201502 | 53 | 280 | 15.0 | 23.0 | 0.00 | 0.00 | 0.00 | 22 | 1013.6 |
| 20260506200059 | 52 | 280 | 11.0 | 16.0 | 0.00 | 0.00 | 0.00 | 23 | 1013.7 |
| 20260506194557 | 52 | 280 | 7.0 | 17.0 | 0.00 | 0.00 | 0.00 | 25 | 1013.9 |
| 20260506193055 | 50 | 280 | 12.0 | 22.0 | 0.00 | 0.00 | 0.00 | 25 | 1014.1 |
| 20260506191554 | 50 | 280 | 6.0 | 17.0 | 0.00 | 0.00 | 0.00 | 29 | 1014.4 |
| 20260506190055 | 51 | 280 | 11.0 | 20.0 | 0.00 | 0.00 | 0.00 | 27 | 1014.5 |
| 20260506184556 | 50 | 280 | 10.0 | 16.0 | 0.00 | 0.00 | 0.00 | 26 | 1014.6 |
| 20260506183048 | 50 | 280 | 14.0 | 23.0 | 0.00 | 0.00 | 0.00 | 25 | 1014.9 |
| 20260506181545 | 50 | 280 | 11.0 | 19.0 | 0.00 | 0.00 | 0.00 | 27 | 1015.2 |
| 20260506180045 | 50 | 280 | 9.0 | 18.0 | 0.00 | 0.00 | 0.00 | 28 | 1015.4 |
| 20260506174543 | 49 | 280 | 10.0 | 19.0 | 0.00 | 0.00 | 0.00 | 27 | 1015.5 |
| 20260506173051 | 49 | 280 | 11.0 | 19.0 | 0.00 | 0.00 | 0.00 | 26 | 1015.8 |
| 20260506171538 | 48 | 280 | 9.0 | 18.0 | 0.00 | 0.00 | 0.00 | 27 | 1015.9 |
| 20260506170035 | 46 | 280 | 10.0 | 17.0 | 0.00 | 0.00 | 0.00 | 28 | 1016.0 |
| 20260506164536 | 46 | 280 | 12.0 | 18.0 | 0.00 | 0.00 | 0.00 | 30 | 1016.2 |
| 20260506163053 | 47 | 280 | 11.0 | 17.0 | 0.00 | 0.00 | 0.00 | 33 | 1016.1 |
| 20260506161530 | 46 | 280 | 8.0 | 19.0 | 0.00 | 0.00 | 0.00 | 29 | 1016.2 |
| 20260506160030 | 46 | 280 | 11.0 | 17.0 | 0.00 | 0.00 | 0.00 | 29 | 1016.3 |
| 20260506154535 | 45 | 280 | 12.0 | 19.0 | 0.00 | 0.00 | 0.00 | 31 | 1016.5 |
| 20260506153029 | 45 | 280 | 14.0 | 20.0 | 0.00 | 0.00 | 0.00 | 32 | 1016.7 |
| 20260506151524 | 44 | 280 | 14.0 | 18.0 | 0.00 | 0.00 | 0.00 | 35 | 1016.7 |
| 20260506150019 | 44 | 280 | 13.0 | 22.0 | 0.00 | 0.00 | 0.00 | 36 | 1016.8 |
| 20260506144516 | 42 | 280 | 13.0 | 19.0 | 0.00 | 0.00 | 0.00 | 42 | 1017.0 |
| 20260506143014 | 39 | 280 | 10.0 | 14.0 | 0.00 | 0.00 | 0.00 | 48 | 1017.1 |
| 20260506141506 | 37 | 280 | 8.0 | 12.0 | 0.00 | 0.00 | 0.00 | 54 | 1017.1 |
| 20260506140008 | 35 | 280 | 7.0 | 12.0 | 0.00 | 0.00 | 0.00 | 57 | 1017.2 |
| 20260506134504 | 33 | 280 | 7.0 | 11.0 | 0.00 | 0.00 | 0.00 | 60 | 1017.2 |
| 20260506133100 | 31 | 280 | 8.0 | 11.0 | 0.00 | 0.00 | 0.00 | 62 | 1017.2 |
| 20260506131608 | 30 | 280 | 5.0 | 10.0 | 0.00 | 0.00 | 0.00 | 66 | 1017.1 |
| 20260506130058 | 28 | 280 | 5.0 | 7.0 | 0.00 | 0.00 | 0.00 | 69 | 1017.2 |
| 20260506124558 | 26 | 280 | 1.0 | 3.0 | 0.00 | 0.00 | 0.00 | 73 | 1017.0 |
| 20260506123111 | 24 | 280 | 1.0 | 2.0 | 0.00 | 0.00 | 0.00 | 74 | 1017.0 |
| 20260506121611 | 22 | 280 | 1.0 | 2.0 | 0.00 | 0.00 | 0.00 | 73 | 1016.8 |
| 20260506120054 | 22 | 280 | 1.0 | 2.0 | 0.00 | 0.00 | 0.00 | 75 | 1016.9 |